Time;durP1;ratioP1;P1;durP2;ratioP2;P2;SDS_P1;SDS_P2;PMS_P1;PMS_P2;Temp;Humidity;BMP_temperature;BMP_pressure;BME280_temperature;BME280_humidity;BME280_pressure;Samples;Min_cycle;Max_cycle;Signal;HPM_P1;HPM_P2
2021/04/10 00:00:12;;;;;;;17.60;13.20;;;9.40;99.90;;;;;;5129084;27;20452;-66
2021/04/10 00:02:39;;;;;;;17.87;13.07;;;9.40;99.90;;;;;;5131786;27;20518;-66
2021/04/10 00:05:07;;;;;;;20.93;13.77;;;9.40;99.90;;;;;;5133806;27;20444;-65
2021/04/10 00:07:34;;;;;;;20.93;14.13;;;9.30;99.90;;;;;;5133526;27;20444;-65
2021/04/10 00:10:00;;;;;;;18.80;11.33;;;9.30;99.90;;;;;;5133047;27;20581;-66
2021/04/10 00:12:26;;;;;;;17.57;12.73;;;9.30;99.90;;;;;;5134196;27;20462;-65
2021/04/10 00:14:53;;;;;;;17.43;12.50;;;9.20;99.90;;;;;;5133714;27;20539;-66
2021/04/10 00:17:20;;;;;;;20.40;13.53;;;9.20;99.90;;;;;;5133637;27;20576;-66
2021/04/10 00:19:46;;;;;;;19.03;13.23;;;9.20;99.90;;;;;;5133372;27;20535;-65
2021/04/10 00:22:13;;;;;;;19.57;13.80;;;9.20;99.90;;;;;;5131527;27;20600;-65
2021/04/10 00:24:39;;;;;;;20.93;14.70;;;9.20;99.90;;;;;;5133037;27;20472;-65
2021/04/10 00:27:06;;;;;;;17.53;12.90;;;9.20;99.90;;;;;;5133703;27;20543;-66
2021/04/10 00:29:32;;;;;;;21.33;14.43;;;9.20;99.90;;;;;;5133822;27;20539;-65
2021/04/10 00:31:58;;;;;;;19.37;14.03;;;9.20;99.90;;;;;;5127413;27;20475;-65
2021/04/10 00:34:26;;;;;;;20.57;15.00;;;9.20;99.90;;;;;;5129217;27;20504;-65
2021/04/10 00:36:52;;;;;;;20.60;15.77;;;9.20;99.90;;;;;;5132231;27;20439;-65
2021/04/10 00:39:19;;;;;;;21.90;15.10;;;9.20;99.90;;;;;;5133023;27;20451;-65
2021/04/10 00:41:45;;;;;;;19.80;16.00;;;9.20;99.90;;;;;;5133229;27;20440;-65
2021/04/10 00:44:11;;;;;;;20.90;15.03;;;9.20;99.90;;;;;;5126953;27;20526;-65
2021/04/10 00:46:38;;;;;;;21.80;15.03;;;9.20;99.90;;;;;;5128564;27;20846;-66
2021/04/10 00:49:04;;;;;;;24.80;16.13;;;9.20;99.90;;;;;;5122844;27;20894;-66
2021/04/10 00:51:31;;;;;;;22.07;16.20;;;9.10;99.90;;;;;;5129369;27;20453;-65
2021/04/10 00:53:58;;;;;;;22.50;16.37;;;9.10;99.90;;;;;;5131535;27;20543;-66
2021/04/10 00:56:24;;;;;;;26.07;17.70;;;9.10;99.90;;;;;;5133025;27;20520;-66
2021/04/10 00:58:50;;;;;;;23.13;16.13;;;9.00;99.90;;;;;;5132256;27;20444;-66
2021/04/10 01:01:17;;;;;;;19.43;16.57;;;9.00;99.90;;;;;;5132970;27;20960;-65
2021/04/10 01:03:44;;;;;;;19.67;15.67;;;9.00;99.90;;;;;;5132781;27;20479;-65
2021/04/10 01:06:11;;;;;;;22.63;16.17;;;9.00;99.90;;;;;;5132734;27;20446;-66
2021/04/10 01:08:38;;;;;;;20.43;15.50;;;8.90;99.90;;;;;;5132964;27;20444;-66
2021/04/10 01:11:14;;;;;;;21.97;16.87;;;9.00;99.90;;;;;;5132973;27;20440;-65
2021/04/10 01:13:49;;;;;;;21.87;16.03;;;9.00;99.90;;;;;;5132592;27;20544;-65
2021/04/10 01:16:20;;;;;;;27.87;16.87;;;9.00;99.90;;;;;;5132319;27;20459;-65
2021/04/10 01:18:52;;;;;;;20.63;17.23;;;9.00;99.90;;;;;;5132362;27;20527;-65
2021/04/10 01:21:34;;;;;;;22.40;17.93;;;9.00;99.90;;;;;;5132736;27;20546;-66
2021/04/10 01:24:26;;;;;;;21.90;17.47;;;9.00;99.90;;;;;;5132510;27;21102;-66
2021/04/10 01:27:04;;;;;;;24.80;16.83;;;9.00;99.90;;;;;;5132386;27;20445;-65
2021/04/10 01:29:37;;;;;;;21.47;17.23;;;9.00;99.90;;;;;;5131940;27;20449;-65
2021/04/10 01:32:04;;;;;;;23.27;18.23;;;9.00;99.90;;;;;;5112870;28;20449;-65
2021/04/10 01:34:35;;;;;;;24.83;17.33;;;9.00;99.90;;;;;;5129038;27;20552;-65
2021/04/10 01:37:07;;;;;;;23.50;17.57;;;9.00;99.90;;;;;;5130769;27;20909;-66
2021/04/10 01:39:34;;;;;;;24.37;18.53;;;9.00;99.90;;;;;;5128795;27;20470;-65
2021/04/10 01:42:02;;;;;;;23.90;18.27;;;9.00;99.90;;;;;;5132688;28;20441;-66
2021/04/10 01:44:29;;;;;;;24.37;17.20;;;9.00;99.90;;;;;;5132565;27;20563;-66
2021/04/10 01:46:59;;;;;;;23.87;18.23;;;9.00;99.90;;;;;;5135963;27;20527;-65
2021/04/10 01:49:27;;;;;;;26.03;20.10;;;9.00;99.90;;;;;;5136824;27;20817;-65
2021/04/10 01:51:54;;;;;;;26.20;19.10;;;9.00;99.90;;;;;;5136277;27;20526;-66
2021/04/10 01:54:21;;;;;;;23.97;18.87;;;9.00;99.90;;;;;;5136969;27;20956;-65
2021/04/10 01:56:49;;;;;;;23.33;17.57;;;9.00;99.90;;;;;;5135642;27;20532;-65
2021/04/10 01:59:16;;;;;;;26.70;20.20;;;9.00;99.90;;;;;;5135983;27;20472;-65
2021/04/10 02:01:48;;;;;;;24.13;21.03;;;9.10;99.90;;;;;;5139533;27;20440;-66
2021/04/10 02:04:16;;;;;;;25.50;19.37;;;9.00;99.90;;;;;;5143995;27;20565;-65
2021/04/10 02:06:45;;;;;;;24.80;20.13;;;9.00;99.90;;;;;;5142703;27;20535;-65
2021/04/10 02:09:12;;;;;;;27.53;20.17;;;9.00;99.90;;;;;;5149203;27;20435;-65
2021/04/10 02:11:42;;;;;;;27.60;18.67;;;9.00;99.90;;;;;;5138894;27;20535;-65
2021/04/10 02:14:12;;;;;;;25.40;19.57;;;9.00;99.90;;;;;;5139566;27;20540;-65
2021/04/10 02:16:39;;;;;;;28.27;20.07;;;9.00;99.90;;;;;;5148594;27;20797;-65
2021/04/10 02:19:06;;;;;;;25.13;20.20;;;9.00;99.90;;;;;;5135567;27;20543;-65
2021/04/10 02:21:33;;;;;;;26.53;20.20;;;9.00;99.90;;;;;;5135895;27;20942;-66
2021/04/10 02:24:00;;;;;;;25.00;18.40;;;9.00;99.90;;;;;;5136082;27;20484;-66
2021/04/10 02:26:27;;;;;;;27.90;21.97;;;9.00;99.90;;;;;;5135848;27;20448;-66
2021/04/10 02:28:56;;;;;;;27.37;19.23;;;9.00;99.90;;;;;;5135830;27;20887;-66
2021/04/10 02:31:28;;;;;;;27.00;18.57;;;9.00;99.90;;;;;;5135762;27;20448;-65
2021/04/10 02:33:57;;;;;;;30.17;19.97;;;9.00;99.90;;;;;;5135991;27;20831;-65
2021/04/10 02:36:25;;;;;;;25.97;19.97;;;9.00;99.90;;;;;;5135013;27;20477;-66
2021/04/10 02:38:54;;;;;;;30.10;20.43;;;9.00;99.90;;;;;;5156782;27;20450;-65
2021/04/10 02:41:23;;;;;;;29.80;20.00;;;9.00;99.90;;;;;;5156762;27;20439;-65
2021/04/10 02:43:53;;;;;;;32.27;21.20;;;9.00;99.90;;;;;;5151834;27;20498;-65
2021/04/10 02:46:22;;;;;;;29.77;20.80;;;9.00;99.90;;;;;;5135439;27;20444;-65
2021/04/10 02:48:55;;;;;;;29.37;19.60;;;9.00;99.90;;;;;;5133535;27;20459;-65
2021/04/10 02:51:25;;;;;;;23.70;19.10;;;9.00;99.90;;;;;;5128305;27;20810;-65
2021/04/10 02:53:54;;;;;;;28.10;21.77;;;9.00;99.90;;;;;;5135278;27;20453;-65
2021/04/10 02:56:24;;;;;;;25.80;19.70;;;9.00;99.90;;;;;;5135365;27;20440;-65
2021/04/10 02:58:51;;;;;;;27.10;20.40;;;9.00;99.90;;;;;;5134723;27;20484;-66
2021/04/10 03:01:19;;;;;;;24.77;18.60;;;9.00;99.90;;;;;;5135477;27;20512;-65
2021/04/10 03:03:48;;;;;;;28.70;21.90;;;9.00;99.90;;;;;;5135404;27;20495;-67
2021/04/10 03:06:15;;;;;;;26.17;21.27;;;9.00;99.90;;;;;;5134493;27;20820;-65
2021/04/10 03:08:42;;;;;;;25.53;19.40;;;9.00;99.90;;;;;;5136354;27;20436;-66
2021/04/10 03:11:09;;;;;;;24.17;19.87;;;9.00;99.90;;;;;;5136658;27;20524;-66
2021/04/10 03:13:37;;;;;;;28.87;21.97;;;9.00;99.90;;;;;;5132371;27;20460;-65
2021/04/10 03:16:05;;;;;;;27.70;21.27;;;9.00;99.90;;;;;;5135020;27;20436;-65
2021/04/10 03:18:32;;;;;;;26.33;20.07;;;9.00;99.90;;;;;;5134830;27;20456;-65
2021/04/10 03:20:59;;;;;;;27.27;21.30;;;9.10;99.90;;;;;;5134911;27;20539;-65
2021/04/10 03:23:25;;;;;;;26.57;20.30;;;9.00;99.90;;;;;;5134845;27;20684;-66
2021/04/10 03:25:52;;;;;;;28.47;19.97;;;9.10;99.90;;;;;;5134268;27;20445;-65
2021/04/10 03:28:22;;;;;;;26.90;20.90;;;9.10;99.90;;;;;;5134752;27;20449;-66
2021/04/10 03:30:49;;;;;;;25.57;20.47;;;9.10;99.90;;;;;;5134813;27;20531;-65
2021/04/10 03:33:16;;;;;;;27.10;21.77;;;9.10;99.90;;;;;;5134859;27;20833;-66
2021/04/10 03:35:42;;;;;;;26.20;20.43;;;9.10;99.90;;;;;;5134462;27;20449;-65
2021/04/10 03:38:09;;;;;;;25.53;21.30;;;9.10;99.90;;;;;;5134645;27;20782;-65
2021/04/10 03:40:35;;;;;;;32.23;22.40;;;9.10;99.90;;;;;;5134647;27;20968;-67
2021/04/10 03:43:02;;;;;;;30.43;22.90;;;9.00;99.90;;;;;;5133707;27;20473;-65
2021/04/10 03:45:29;;;;;;;27.00;21.60;;;9.00;99.90;;;;;;5134687;27;20539;-66
2021/04/10 03:47:56;;;;;;;35.83;23.60;;;9.00;99.90;;;;;;5134136;27;20449;-65
2021/04/10 03:50:23;;;;;;;32.80;24.63;;;8.90;99.90;;;;;;5134631;27;20445;-65
2021/04/10 03:52:50;;;;;;;28.10;22.73;;;8.90;99.90;;;;;;5134096;27;20456;-65
2021/04/10 03:55:16;;;;;;;32.17;23.93;;;8.90;99.90;;;;;;5134499;27;20456;-65
2021/04/10 03:57:43;;;;;;;31.60;23.43;;;8.90;99.90;;;;;;5133869;27;20479;-66
2021/04/10 04:00:10;;;;;;;28.40;20.70;;;8.90;99.90;;;;;;5114311;28;20449;-65
2021/04/10 04:02:38;;;;;;;25.83;20.97;;;8.80;99.90;;;;;;5133175;27;20449;-65
2021/04/10 04:05:06;;;;;;;25.97;23.10;;;8.80;99.90;;;;;;5151799;27;20444;-65
2021/04/10 04:07:32;;;;;;;28.50;22.67;;;8.70;99.90;;;;;;5137888;27;20828;-66
2021/04/10 04:09:59;;;;;;;30.67;24.83;;;8.70;99.90;;;;;;5133478;27;20476;-66
2021/04/10 04:12:25;;;;;;;29.47;21.17;;;8.60;99.90;;;;;;5133762;27;20535;-65
2021/04/10 04:14:51;;;;;;;28.60;22.27;;;8.70;99.90;;;;;;5133642;27;20453;-66
2021/04/10 04:17:18;;;;;;;28.50;22.50;;;8.60;99.90;;;;;;5133601;27;21012;-66
2021/04/10 04:19:45;;;;;;;31.33;20.80;;;8.60;99.90;;;;;;5134059;27;20535;-65
2021/04/10 04:22:11;;;;;;;25.63;21.10;;;8.50;99.90;;;;;;5133682;27;20851;-65
2021/04/10 04:24:38;;;;;;;26.80;21.87;;;8.50;99.90;;;;;;5133793;27;20486;-65
2021/04/10 04:27:05;;;;;;;30.93;21.60;;;8.50;99.90;;;;;;5133798;27;20491;-65
2021/04/10 04:29:31;;;;;;;29.90;22.20;;;8.30;99.90;;;;;;5126731;27;20493;-65
2021/04/10 04:31:58;;;;;;;27.57;20.40;;;8.40;99.90;;;;;;5133363;27;20496;-65
2021/04/10 04:34:24;;;;;;;31.33;22.07;;;8.50;99.90;;;;;;5133766;27;20957;-65
2021/04/10 04:36:51;;;;;;;26.33;20.10;;;8.40;99.90;;;;;;5132816;27;20505;-66
2021/04/10 04:39:18;;;;;;;23.60;18.67;;;8.50;99.90;;;;;;5133915;27;20536;-66
2021/04/10 04:41:44;;;;;;;28.37;19.97;;;8.50;99.90;;;;;;5133098;27;20573;-65
2021/04/10 04:44:10;;;;;;;26.63;19.90;;;8.50;99.90;;;;;;5134259;27;20564;-65
2021/04/10 04:46:37;;;;;;;26.73;21.80;;;8.50;99.90;;;;;;5132745;27;20476;-65
2021/04/10 04:49:03;;;;;;;30.97;22.47;;;8.30;99.90;;;;;;5133034;27;20501;-66
2021/04/10 04:51:30;;;;;;;25.13;20.67;;;8.30;99.90;;;;;;5133646;27;20557;-65
2021/04/10 04:53:57;;;;;;;32.30;23.97;;;8.40;99.90;;;;;;5133759;27;20540;-66
2021/04/10 04:56:23;;;;;;;33.43;23.23;;;8.20;99.90;;;;;;5132651;27;20944;-65
2021/04/10 04:58:50;;;;;;;31.50;21.73;;;8.20;99.90;;;;;;5133229;27;20484;-65
2021/04/10 05:01:16;;;;;;;31.90;22.70;;;8.30;99.90;;;;;;5133009;27;20867;-65
2021/04/10 05:03:42;;;;;;;27.63;20.77;;;8.40;99.90;;;;;;5132881;27;20475;-65
2021/04/10 05:06:09;;;;;;;29.93;22.07;;;8.40;99.90;;;;;;5132682;27;20533;-65
2021/04/10 05:08:35;;;;;;;28.10;22.03;;;8.30;99.90;;;;;;5131721;27;20532;-65
2021/04/10 05:11:02;;;;;;;29.33;21.40;;;8.30;99.90;;;;;;5130993;27;20440;-65
2021/04/10 05:13:29;;;;;;;26.70;20.30;;;8.30;99.90;;;;;;5131505;27;20457;-66
2021/04/10 05:15:56;;;;;;;28.80;22.13;;;8.40;99.90;;;;;;5131801;27;20810;-65
2021/04/10 05:18:22;;;;;;;26.20;20.87;;;8.40;99.90;;;;;;5131042;27;20463;-66
2021/04/10 05:20:49;;;;;;;28.13;21.03;;;8.40;99.90;;;;;;5129905;27;20443;-65
2021/04/10 05:23:20;;;;;;;29.63;22.40;;;8.40;99.90;;;;;;5131454;27;20685;-66
2021/04/10 05:25:47;;;;;;;26.80;22.37;;;8.40;99.90;;;;;;5131733;27;20496;-65
2021/04/10 05:28:14;;;;;;;29.77;21.30;;;8.30;99.90;;;;;;5131955;28;20441;-65
2021/04/10 05:30:41;;;;;;;28.70;23.37;;;8.40;99.90;;;;;;5132594;27;20442;-66
2021/04/10 05:33:07;;;;;;;28.37;21.03;;;8.50;99.90;;;;;;5125694;27;20449;-65
2021/04/10 05:35:34;;;;;;;32.07;22.60;;;8.40;99.90;;;;;;5129021;28;20445;-65
2021/04/10 05:38:00;;;;;;;33.87;24.10;;;8.40;99.90;;;;;;5125074;27;20823;-65
2021/04/10 05:40:26;;;;;;;33.83;22.53;;;8.40;99.90;;;;;;5127744;27;20449;-65
2021/04/10 05:42:53;;;;;;;29.47;21.90;;;8.30;99.90;;;;;;5130937;27;20488;-67
2021/04/10 05:45:20;;;;;;;27.77;21.27;;;8.30;99.90;;;;;;5131259;27;20449;-65
2021/04/10 05:47:46;;;;;;;31.50;24.40;;;8.40;99.90;;;;;;5128396;27;20501;-65
2021/04/10 05:50:13;;;;;;;36.00;25.70;;;8.30;99.90;;;;;;5131059;27;20448;-67
2021/04/10 05:52:40;;;;;;;32.97;23.73;;;8.30;99.90;;;;;;5131056;27;20820;-65
2021/04/10 05:55:08;;;;;;;24.93;20.30;;;8.40;99.90;;;;;;5130573;27;20835;-68
2021/04/10 05:57:34;;;;;;;31.90;21.40;;;8.50;99.90;;;;;;5130937;27;20819;-67
2021/04/10 06:00:01;;;;;;;29.17;22.53;;;8.50;99.90;;;;;;5131503;28;20444;-67
2021/04/10 06:02:28;;;;;;;28.60;21.37;;;8.50;99.90;;;;;;5130859;27;20532;-66
2021/04/10 06:04:55;;;;;;;34.57;24.00;;;8.40;99.90;;;;;;5131114;27;20472;-65
2021/04/10 06:07:21;;;;;;;33.17;22.97;;;8.40;99.90;;;;;;5130605;27;20529;-65
2021/04/10 06:09:48;;;;;;;38.47;24.90;;;8.50;99.90;;;;;;5128440;27;20825;-69
2021/04/10 06:12:14;;;;;;;31.00;23.30;;;8.50;99.90;;;;;;5129575;27;21016;-65
2021/04/10 06:14:41;;;;;;;34.00;23.47;;;8.50;99.90;;;;;;5131089;27;20440;-66
2021/04/10 06:17:07;;;;;;;33.10;24.07;;;8.50;99.90;;;;;;5130768;28;20821;-68
2021/04/10 06:19:34;;;;;;;36.63;25.60;;;8.60;99.90;;;;;;5130957;27;20447;-64
2021/04/10 06:22:00;;;;;;;30.33;23.90;;;8.70;99.90;;;;;;5129951;27;20941;-65
2021/04/10 06:24:27;;;;;;;31.20;23.00;;;8.60;99.90;;;;;;5129033;28;20484;-67
2021/04/10 06:26:53;;;;;;;32.33;24.27;;;8.70;99.90;;;;;;5131996;27;20454;-65
2021/04/10 06:29:19;;;;;;;32.80;23.60;;;8.70;99.90;;;;;;5129653;27;20536;-65
2021/04/10 06:31:46;;;;;;;31.40;22.60;;;8.80;99.90;;;;;;5132102;27;20972;-68
2021/04/10 06:34:12;;;;;;;30.30;21.17;;;8.80;99.90;;;;;;5135806;27;20861;-64
2021/04/10 06:36:39;;;;;;;33.73;24.20;;;8.70;99.90;;;;;;5135038;27;20440;-67
2021/04/10 06:39:06;;;;;;;32.03;20.30;;;8.60;99.90;;;;;;5135699;27;20843;-64
2021/04/10 06:41:34;;;;;;;33.33;22.47;;;8.50;99.90;;;;;;5135535;27;20527;-65
2021/04/10 06:44:01;;;;;;;32.97;21.03;;;8.40;99.90;;;;;;5135069;27;21124;-69
2021/04/10 06:46:31;;;;;;;39.23;25.03;;;8.50;99.90;;;;;;5135206;27;20860;-69
2021/04/10 06:48:59;;;;;;;33.07;25.80;;;8.40;99.90;;;;;;5135578;27;20440;-65
2021/04/10 06:51:25;;;;;;;30.70;22.77;;;8.50;99.90;;;;;;5135461;27;20447;-65
2021/04/10 06:53:54;;;;;;;40.47;25.63;;;8.60;99.90;;;;;;5135635;27;20452;-64
2021/04/10 06:56:24;;;;;;;33.27;21.33;;;8.60;99.90;;;;;;5134961;27;20941;-66
2021/04/10 06:58:56;;;;;;;34.27;22.97;;;8.70;99.90;;;;;;5135551;27;20447;-65
2021/04/10 07:01:23;;;;;;;31.93;22.60;;;8.60;99.90;;;;;;5135624;27;20443;-65
2021/04/10 07:03:51;;;;;;;30.43;22.20;;;8.40;99.90;;;;;;5135418;27;20559;-65
2021/04/10 07:06:18;;;;;;;36.67;22.20;;;8.40;99.90;;;;;;5134844;27;20443;-65
2021/04/10 07:08:45;;;;;;;31.73;22.03;;;8.40;99.90;;;;;;5134570;27;20476;-65
2021/04/10 07:11:13;;;;;;;31.53;22.60;;;8.40;99.90;;;;;;5130006;27;20499;-66
2021/04/10 07:13:40;;;;;;;34.27;23.60;;;8.50;99.90;;;;;;5133116;27;21017;-65
2021/04/10 07:16:07;;;;;;;35.87;23.23;;;8.60;99.90;;;;;;5127623;27;20449;-65
2021/04/10 07:19:10;;;;;;;42.10;25.53;;;8.60;99.90;;;;;;5134672;27;20440;-65
2021/04/10 07:21:37;;;;;;;46.73;27.13;;;8.50;99.90;;;;;;5127771;27;20452;-67
2021/04/10 07:24:03;;;;;;;44.80;28.73;;;8.50;99.90;;;;;;5127806;27;20560;-65
2021/04/10 07:26:50;;;;;;;42.57;27.10;;;8.50;99.90;;;;;;5134116;27;20963;-66
2021/04/10 07:29:33;;;;;;;42.47;24.70;;;8.50;99.90;;;;;;5125873;27;20542;-67
2021/04/10 07:32:00;;;;;;;38.50;24.10;;;8.30;99.90;;;;;;5134818;27;20484;-65
2021/04/10 07:34:28;;;;;;;34.20;19.93;;;8.40;99.90;;;;;;5134413;27;20448;-65
2021/04/10 07:37:03;;;;;;;33.90;21.20;;;8.60;99.90;;;;;;5134477;27;20615;-65
2021/04/10 07:39:44;;;;;;;33.13;21.30;;;8.60;99.90;;;;;;5134282;27;20985;-66
2021/04/10 07:42:12;;;;;;;37.40;21.43;;;8.90;99.90;;;;;;5134282;27;20455;-66
2021/04/10 07:44:39;;;;;;;32.10;20.77;;;9.10;99.90;;;;;;5134146;27;20559;-67
2021/04/10 07:47:07;;;;;;;33.63;19.37;;;9.10;99.90;;;;;;5134261;27;20440;-66
2021/04/10 07:49:34;;;;;;;33.40;19.03;;;9.10;99.90;;;;;;5133957;27;20487;-66
2021/04/10 07:52:04;;;;;;;29.77;19.13;;;9.30;99.90;;;;;;5133527;27;20450;-66
2021/04/10 07:54:31;;;;;;;30.20;21.13;;;9.30;99.90;;;;;;5133428;27;20522;-65
2021/04/10 07:57:00;;;;;;;31.47;20.30;;;9.50;99.90;;;;;;5133874;27;20819;-67
2021/04/10 07:59:29;;;;;;;35.80;19.97;;;9.60;99.90;;;;;;5133876;27;20442;-66
2021/04/10 08:02:08;;;;;;;34.63;20.87;;;9.60;99.90;;;;;;5133212;27;21299;-68
2021/04/10 08:04:35;;;;;;;35.57;22.87;;;9.50;99.90;;;;;;5133740;27;20476;-69
2021/04/10 08:07:01;;;;;;;37.57;23.87;;;9.30;99.90;;;;;;5132993;27;20497;-66
2021/04/10 08:09:33;;;;;;;43.67;25.10;;;9.40;99.90;;;;;;5133767;27;20484;-66
2021/04/10 08:12:01;;;;;;;42.20;26.40;;;9.40;99.90;;;;;;5126932;27;20449;-66
2021/04/10 08:14:43;;;;;;;40.97;25.03;;;9.50;99.90;;;;;;5133171;27;20476;-68
2021/04/10 08:17:10;;;;;;;37.03;21.67;;;9.10;99.90;;;;;;5133523;27;20966;-66
2021/04/10 08:19:37;;;;;;;43.97;26.53;;;9.10;99.90;;;;;;5133015;27;20528;-69
2021/04/10 08:22:04;;;;;;;40.07;25.90;;;9.30;99.90;;;;;;5133643;27;20440;-66
2021/04/10 08:24:39;;;;;;;36.97;24.03;;;9.50;99.90;;;;;;5130449;27;20580;-66
2021/04/10 08:27:08;;;;;;;49.93;26.27;;;9.80;99.90;;;;;;5135695;27;20531;-65
2021/04/10 08:29:36;;;;;;;42.70;25.23;;;9.80;99.90;;;;;;5138851;27;20532;-65
2021/04/10 08:32:05;;;;;;;39.87;25.33;;;10.00;99.90;;;;;;5140718;27;20534;-66
2021/04/10 08:34:32;;;;;;;38.83;26.43;;;10.00;99.90;;;;;;5141451;27;20468;-65
2021/04/10 08:37:01;;;;;;;46.37;27.77;;;10.20;99.90;;;;;;5143229;27;20451;-68
2021/04/10 08:39:31;;;;;;;46.83;26.03;;;10.40;99.90;;;;;;5140009;27;20900;-65
2021/04/10 08:41:59;;;;;;;45.70;27.20;;;10.60;99.90;;;;;;5143414;27;20441;-66
2021/04/10 08:44:29;;;;;;;44.60;26.73;;;10.50;99.90;;;;;;5131850;27;20533;-66
2021/04/10 08:46:56;;;;;;;42.60;25.70;;;10.50;99.90;;;;;;5133046;27;20448;-65
2021/04/10 08:49:27;;;;;;;41.03;25.67;;;10.80;99.90;;;;;;5133711;27;20949;-65
2021/04/10 08:52:00;;;;;;;39.63;26.37;;;11.00;99.90;;;;;;5133179;27;20460;-66
2021/04/10 08:54:28;;;;;;;41.93;24.33;;;11.10;99.90;;;;;;5132673;27;20523;-68
2021/04/10 08:56:55;;;;;;;40.83;24.97;;;11.10;99.90;;;;;;5132364;27;20532;-67
2021/04/10 08:59:21;;;;;;;35.67;23.00;;;11.30;99.90;;;;;;5132290;27;20488;-64
2021/04/10 09:02:10;;;;;;;28.00;19.70;;;11.20;99.90;;;;;;5133108;27;20977;-64
2021/04/10 09:05:04;;;;;;;38.63;21.73;;;11.20;99.90;;;;;;5132243;27;20480;-68
2021/04/10 09:08:07;;;;;;;42.33;23.10;;;11.00;99.90;;;;;;5130198;27;20527;-67
2021/04/10 09:10:47;;;;;;;36.40;24.20;;;11.00;99.90;;;;;;5132270;27;20523;-65
2021/04/10 09:13:40;;;;;;;36.67;21.93;;;11.10;99.90;;;;;;5132561;27;20557;-65
2021/04/10 09:16:28;;;;;;;33.73;21.93;;;11.50;99.90;;;;;;5130211;27;20530;-65
2021/04/10 09:18:57;;;;;;;35.93;23.37;;;12.30;99.90;;;;;;5132747;27;20557;-65
2021/04/10 09:21:25;;;;;;;35.83;22.57;;;13.10;99.90;;;;;;5125574;27;20487;-68
2021/04/10 09:23:52;;;;;;;28.90;20.93;;;14.00;99.90;;;;;;5123239;27;20904;-65
2021/04/10 09:26:20;;;;;;;32.03;22.17;;;14.20;99.90;;;;;;5127141;27;20964;-65
2021/04/10 09:29:15;;;;;;;33.40;23.33;;;14.00;99.90;;;;;;5130560;27;20451;-66
2021/04/10 09:31:44;;;;;;;33.30;23.87;;;14.00;99.90;;;;;;5120755;27;20460;-66
2021/04/10 09:34:45;;;;;;;32.80;23.20;;;13.60;99.90;;;;;;5124490;27;20465;-68
2021/04/10 09:37:13;;;;;;;30.00;21.30;;;13.50;99.90;;;;;;5131886;27;20439;-65
2021/04/10 09:39:51;;;;;;;30.50;21.40;;;13.50;99.90;;;;;;5132435;27;20492;-66
2021/04/10 09:42:44;;;;;;;31.10;22.83;;;13.50;99.90;;;;;;5128068;28;20436;-65
2021/04/10 09:45:12;;;;;;;35.83;24.87;;;12.90;99.90;;;;;;5128723;27;21004;-66
2021/04/10 09:48:18;;;;;;;34.87;22.70;;;12.40;99.90;;;;;;5132003;27;20884;-66
2021/04/10 09:50:58;;;;;;;37.30;26.90;;;12.30;99.90;;;;;;5121853;28;20476;-69
2021/04/10 09:53:27;;;;;;;32.83;24.07;;;12.00;99.90;;;;;;5125361;28;20941;-66
2021/04/10 09:56:00;;;;;;;38.57;25.50;;;12.20;99.90;;;;;;5131772;27;21013;-67
2021/04/10 09:58:32;;;;;;;43.20;26.67;;;11.90;99.90;;;;;;5132315;28;20448;-67
2021/04/10 10:01:04;;;;;;;32.73;24.43;;;11.60;99.90;;;;;;5127459;28;20540;-65
2021/04/10 10:03:31;;;;;;;34.23;22.50;;;11.60;99.90;;;;;;5131324;28;20576;-66
2021/04/10 10:05:57;;;;;;;31.00;24.73;;;11.90;99.90;;;;;;5131700;27;20601;-65
2021/04/10 10:08:28;;;;;;;32.63;24.47;;;12.10;99.90;;;;;;5134647;27;20539;-67
2021/04/10 10:10:56;;;;;;;35.40;24.40;;;12.20;99.90;;;;;;5136652;27;20973;-66
2021/04/10 10:13:24;;;;;;;35.37;27.17;;;12.30;99.90;;;;;;5134182;27;20553;-66
2021/04/10 10:15:52;;;;;;;35.03;24.43;;;12.40;99.90;;;;;;5134179;27;20448;-68
2021/04/10 10:18:21;;;;;;;36.37;26.07;;;12.30;99.90;;;;;;5134720;27;20483;-65
2021/04/10 10:20:55;;;;;;;40.37;26.70;;;12.20;99.90;;;;;;5131869;27;21005;-68
2021/04/10 10:23:22;;;;;;;34.97;26.53;;;12.00;99.90;;;;;;5134103;27;20558;-66
2021/04/10 10:25:49;;;;;;;40.83;24.83;;;12.00;99.90;;;;;;5134097;27;20527;-65
2021/04/10 10:28:17;;;;;;;38.53;26.07;;;12.10;99.90;;;;;;5134764;27;20448;-66
2021/04/10 10:30:44;;;;;;;38.60;27.67;;;12.30;99.90;;;;;;5135371;27;20433;-66
2021/04/10 10:33:11;;;;;;;36.83;25.80;;;12.10;99.90;;;;;;5135340;27;20440;-66
2021/04/10 10:35:38;;;;;;;39.03;26.57;;;11.90;99.90;;;;;;5134316;27;20452;-66
2021/04/10 10:38:06;;;;;;;33.97;24.47;;;11.70;99.90;;;;;;5134739;27;20556;-65
2021/04/10 10:40:33;;;;;;;33.90;24.57;;;11.80;99.90;;;;;;5134223;27;20532;-66
2021/04/10 10:43:05;;;;;;;41.13;28.17;;;11.90;99.90;;;;;;5129307;27;20503;-67
2021/04/10 10:45:46;;;;;;;40.40;23.60;;;11.50;99.90;;;;;;5129398;27;20544;-66
2021/04/10 10:48:21;;;;;;;43.43;27.83;;;11.30;99.90;;;;;;5134181;27;20448;-66
2021/04/10 10:50:49;;;;;;;36.10;25.53;;;11.20;99.90;;;;;;5136573;27;20444;-65
2021/04/10 10:53:17;;;;;;;37.90;23.93;;;11.20;99.90;;;;;;5140512;27;20460;-65
2021/04/10 10:56:11;;;;;;;38.23;25.63;;;11.40;99.90;;;;;;5133919;27;20444;-68
2021/04/10 10:58:41;;;;;;;41.10;27.30;;;11.10;99.90;;;;;;5131466;27;20933;-65
2021/04/10 11:01:13;;;;;;;42.77;27.37;;;10.90;99.90;;;;;;5131227;27;20527;-64
2021/04/10 11:03:43;;;;;;;41.00;28.40;;;10.80;99.90;;;;;;5136046;27;20502;-68
2021/04/10 11:06:14;;;;;;;45.60;29.90;;;10.70;99.90;;;;;;5128484;27;20485;-66
2021/04/10 11:08:40;;;;;;;43.40;28.13;;;10.50;99.90;;;;;;5125489;27;20536;-66
2021/04/10 11:11:07;;;;;;;49.63;31.50;;;10.40;99.90;;;;;;5130504;27;20449;-66
2021/04/10 11:13:34;;;;;;;43.07;29.87;;;10.40;99.90;;;;;;5133427;27;20508;-64
2021/04/10 11:16:03;;;;;;;50.23;32.80;;;10.20;99.90;;;;;;5131774;27;20535;-67
2021/04/10 11:18:32;;;;;;;53.90;35.43;;;10.00;99.90;;;;;;5133815;27;20588;-66
2021/04/10 11:21:21;;;;;;;54.57;33.87;;;9.90;99.90;;;;;;5130822;27;20449;-66
2021/04/10 11:24:06;;;;;;;50.80;31.80;;;9.80;99.90;;;;;;5127045;27;20485;-67
2021/04/10 11:26:38;;;;;;;50.53;31.53;;;9.70;99.90;;;;;;5133327;27;20998;-66
2021/04/10 11:29:24;;;;;;;47.17;30.67;;;9.70;99.90;;;;;;5133665;27;20868;-66
2021/04/10 11:32:14;;;;;;;48.70;31.70;;;9.90;99.90;;;;;;5126350;27;20528;-66
2021/04/10 11:34:51;;;;;;;46.10;29.63;;;10.00;99.90;;;;;;5130990;27;20536;-67
2021/04/10 11:37:20;;;;;;;47.57;29.67;;;10.00;99.90;;;;;;5129098;27;20479;-66
2021/04/10 11:39:49;;;;;;;50.43;31.00;;;10.20;99.90;;;;;;5134515;27;20782;-66
2021/04/10 11:42:23;;;;;;;45.70;29.73;;;10.10;99.90;;;;;;5133504;27;20451;-63
2021/04/10 11:44:50;;;;;;;53.03;32.10;;;10.10;99.90;;;;;;5133843;27;20978;-67
2021/04/10 11:47:20;;;;;;;56.83;33.20;;;10.20;99.90;;;;;;5133784;27;20497;-65
2021/04/10 11:49:47;;;;;;;47.00;29.93;;;10.00;99.90;;;;;;5134300;27;20462;-66
2021/04/10 11:52:14;;;;;;;55.37;32.87;;;9.90;99.90;;;;;;5134511;27;20451;-65
2021/04/10 11:54:40;;;;;;;47.90;31.40;;;9.80;99.90;;;;;;5127998;27;20544;-69
2021/04/10 11:57:07;;;;;;;58.57;33.27;;;9.80;99.90;;;;;;5122249;27;20473;-65
2021/04/10 11:59:35;;;;;;;54.97;32.60;;;9.80;99.90;;;;;;5130619;27;21000;-66
2021/04/10 12:02:02;;;;;;;47.93;30.90;;;9.80;99.90;;;;;;5130073;27;20941;-65
2021/04/10 12:04:31;;;;;;;51.90;32.10;;;10.10;99.90;;;;;;5132084;27;20571;-65
2021/04/10 12:07:05;;;;;;;54.13;31.53;;;10.20;99.90;;;;;;5131806;27;20455;-65
2021/04/10 12:09:36;;;;;;;52.90;32.07;;;10.20;99.90;;;;;;5132867;27;20441;-64
2021/04/10 12:12:02;;;;;;;42.93;26.80;;;10.30;99.90;;;;;;5129232;27;20459;-64
2021/04/10 12:14:29;;;;;;;44.10;30.27;;;10.60;99.90;;;;;;5132018;27;20452;-67
2021/04/10 12:16:55;;;;;;;44.40;27.70;;;10.50;99.90;;;;;;5130910;27;20513;-65
2021/04/10 12:19:23;;;;;;;55.93;31.43;;;10.30;99.90;;;;;;5132194;27;20512;-66
2021/04/10 12:21:51;;;;;;;46.70;30.80;;;10.10;99.90;;;;;;5127015;27;20536;-65
2021/04/10 12:24:17;;;;;;;46.13;29.10;;;9.90;99.90;;;;;;5125590;27;20852;-66
2021/04/10 12:26:44;;;;;;;57.93;32.80;;;9.80;99.90;;;;;;5132257;27;20453;-66
2021/04/10 12:29:11;;;;;;;50.80;28.07;;;9.80;99.90;;;;;;5127271;27;20489;-65
2021/04/10 12:31:37;;;;;;;50.97;33.00;;;9.80;99.90;;;;;;5131956;27;20445;-64
2021/04/10 12:34:04;;;;;;;52.90;31.47;;;9.50;99.90;;;;;;5127642;27;21805;-66
2021/04/10 12:36:31;;;;;;;50.80;30.37;;;9.40;99.90;;;;;;5131747;27;20834;-64
2021/04/10 12:38:59;;;;;;;49.50;30.73;;;9.40;99.90;;;;;;5127147;27;20444;-66
2021/04/10 12:41:25;;;;;;;45.83;27.83;;;9.40;99.90;;;;;;5130210;27;20520;-66
2021/04/10 12:43:52;;;;;;;53.07;33.57;;;9.60;99.90;;;;;;5133028;27;20508;-66